createdAt,value
2023-05-04T00:00:11.107Z,100795.47
2023-05-04T00:01:11.120Z,100796.39
2023-05-04T00:02:11.096Z,100794.95
2023-05-04T00:03:11.121Z,100796.54
2023-05-04T00:04:11.252Z,100797.01
2023-05-04T00:05:11.071Z,100800.47
2023-05-04T00:06:11.073Z,100795.99
2023-05-04T00:07:11.103Z,100793.05
2023-05-04T00:08:11.072Z,100793.98
2023-05-04T00:09:11.078Z,100788.61
2023-05-04T00:10:11.076Z,100790.86
2023-05-04T00:11:11.073Z,100791.89
2023-05-04T00:12:11.077Z,100788.69
2023-05-04T00:13:11.263Z,100788.23
2023-05-04T00:14:11.076Z,100787.02
2023-05-04T00:15:11.074Z,100783.22
2023-05-04T00:16:11.303Z,100780.95
2023-05-04T00:17:11.078Z,100781.45
2023-05-04T00:18:11.082Z,100780.06
2023-05-04T00:19:11.102Z,100778.79
2023-05-04T00:20:11.074Z,100776.76
2023-05-04T00:21:11.081Z,100776.43
2023-05-04T00:22:11.076Z,100773.69
2023-05-04T00:23:11.079Z,100772.95
2023-05-04T00:24:11.074Z,100775.84
2023-05-04T00:25:11.082Z,100772.76
2023-05-04T00:26:11.073Z,100776.25
2023-05-04T00:27:11.098Z,100773.73
2023-05-04T00:28:11.082Z,100773.43
2023-05-04T00:29:11.084Z,100765.00
2023-05-04T00:30:11.123Z,100772.68
2023-05-04T00:31:11.122Z,100764.65
2023-05-04T00:32:11.072Z,100764.46
2023-05-04T00:33:11.140Z,100758.17
2023-05-04T00:34:11.099Z,100758.49
2023-05-04T00:35:11.076Z,100757.22
2023-05-04T00:36:11.080Z,100751.45
2023-05-04T00:37:11.095Z,100752.53
2023-05-04T00:38:11.075Z,100753.58
2023-05-04T00:39:11.085Z,100749.65
2023-05-04T00:40:11.092Z,100754.80
2023-05-04T00:41:11.078Z,100750.43
2023-05-04T00:42:11.100Z,100746.50
2023-05-04T00:43:11.091Z,100749.35
2023-05-04T00:44:11.092Z,100743.45
2023-05-04T00:45:11.080Z,100736.11
2023-05-04T00:46:11.125Z,100738.48
2023-05-04T00:47:11.136Z,100747.54
2023-05-04T00:48:11.143Z,100744.14
2023-05-04T00:49:11.091Z,100745.51
2023-05-04T00:50:11.084Z,100741.20
2023-05-04T00:51:11.077Z,100741.82
2023-05-04T00:52:11.094Z,100743.85
2023-05-04T00:53:11.086Z,100741.41
2023-05-04T00:54:11.079Z,100740.81
2023-05-04T00:55:11.090Z,100741.16
2023-05-04T00:56:11.088Z,100740.00
2023-05-04T00:57:11.078Z,100743.32
2023-05-04T00:58:11.084Z,100743.46
2023-05-04T00:59:11.080Z,100738.46
2023-05-04T01:00:11.087Z,100733.71
2023-05-04T01:01:11.140Z,100734.75
2023-05-04T01:02:11.062Z,100735.36
2023-05-04T01:03:11.162Z,100735.29
2023-05-04T01:04:11.197Z,100734.50
2023-05-04T01:05:11.077Z,100728.25
2023-05-04T01:06:19.062Z,100725.70
2023-05-04T01:07:19.066Z,100723.06
2023-05-04T01:08:18.070Z,100719.38
2023-05-04T01:09:20.063Z,100714.19
2023-05-04T01:10:20.075Z,100715.61
2023-05-04T01:11:17.060Z,100709.00
2023-05-04T01:12:18.080Z,100716.98
2023-05-04T01:13:13.223Z,100713.93
2023-05-04T01:14:11.071Z,100711.16
2023-05-04T01:15:13.082Z,100707.62
2023-05-04T01:16:11.093Z,100705.81
2023-05-04T01:17:11.264Z,100710.69
2023-05-04T01:18:11.108Z,100704.80
2023-05-04T01:19:11.067Z,100705.74
2023-05-04T01:20:11.083Z,100704.59
2023-05-04T01:21:11.066Z,100702.21
2023-05-04T01:22:11.064Z,100701.18
2023-05-04T01:23:11.068Z,100698.13
2023-05-04T01:24:11.068Z,100697.02
2023-05-04T01:25:11.065Z,100697.65
2023-05-04T01:26:16.068Z,100695.55
2023-05-04T01:27:18.088Z,100692.87
2023-05-04T01:28:18.066Z,100693.34
2023-05-04T01:29:17.076Z,100687.97
2023-05-04T01:30:18.084Z,100688.42
2023-05-04T01:31:13.100Z,100687.20
2023-05-04T01:32:11.067Z,100689.98
2023-05-04T01:33:11.168Z,100689.50
2023-05-04T01:34:11.064Z,100686.65
2023-05-04T01:35:11.069Z,100689.33
2023-05-04T01:36:11.074Z,100691.60
2023-05-04T01:37:11.072Z,100691.12
2023-05-04T01:38:11.069Z,100690.11
2023-05-04T01:39:11.071Z,100690.25
2023-05-04T01:40:11.069Z,100686.82
2023-05-04T01:41:11.064Z,100682.02
2023-05-04T01:42:11.079Z,100685.07
2023-05-04T01:43:11.064Z,100681.96
2023-05-04T01:44:11.060Z,100685.82
2023-05-04T01:45:11.072Z,100680.81
2023-05-04T01:46:11.105Z,100677.06
2023-05-04T01:47:11.059Z,100677.70
2023-05-04T01:48:11.112Z,100673.49
2023-05-04T01:49:11.079Z,100670.60
2023-05-04T01:50:11.063Z,100672.56
2023-05-04T01:51:11.067Z,100666.59
2023-05-04T01:52:11.066Z,100667.12
2023-05-04T01:53:11.059Z,100669.67
2023-05-04T01:54:11.064Z,100667.41
2023-05-04T01:55:11.069Z,100664.12
2023-05-04T01:56:11.060Z,100663.19
2023-05-04T01:57:11.071Z,100664.08
2023-05-04T01:58:11.074Z,100660.37
2023-05-04T01:59:11.066Z,100657.71
2023-05-04T02:00:11.076Z,100659.05
2023-05-04T02:01:11.090Z,100661.55
2023-05-04T02:02:11.065Z,100661.95
2023-05-04T02:03:11.137Z,100660.12
2023-05-04T02:04:11.276Z,100658.37
2023-05-04T02:05:11.070Z,100656.54
2023-05-04T02:06:11.065Z,100654.89
2023-05-04T02:07:11.145Z,100654.64
2023-05-04T02:08:11.068Z,100658.16
2023-05-04T02:09:11.064Z,100655.78
2023-05-04T02:10:11.074Z,100652.02
2023-05-04T02:11:11.071Z,100654.50
2023-05-04T02:12:11.067Z,100654.09
2023-05-04T02:13:11.127Z,100652.61
2023-05-04T02:14:11.064Z,100649.12
2023-05-04T02:15:11.079Z,100651.63
2023-05-04T02:16:11.117Z,100649.67
2023-05-04T02:17:11.065Z,100649.42
2023-05-04T02:18:11.132Z,100648.47
2023-05-04T02:19:11.071Z,100650.60
2023-05-04T02:20:11.067Z,100642.35
2023-05-04T02:21:11.067Z,100644.30
2023-05-04T02:22:11.068Z,100640.20
2023-05-04T02:23:11.068Z,100641.02
2023-05-04T02:24:11.063Z,100638.81
2023-05-04T02:25:11.071Z,100639.22
2023-05-04T02:26:11.071Z,100641.30
2023-05-04T02:27:11.063Z,100640.22
2023-05-04T02:28:11.065Z,100638.78
2023-05-04T02:29:11.072Z,100642.66
2023-05-04T02:30:11.066Z,100644.23
2023-05-04T02:31:11.084Z,100640.52
2023-05-04T02:32:11.076Z,100637.46
2023-05-04T02:33:11.065Z,100634.60
2023-05-04T02:34:11.076Z,100637.44
2023-05-04T02:35:11.074Z,100635.50
2023-05-04T02:36:11.069Z,100629.85
2023-05-04T02:37:11.062Z,100627.84
2023-05-04T02:38:11.077Z,100629.95
2023-05-04T02:39:11.075Z,100629.26
2023-05-04T02:40:11.060Z,100631.51
2023-05-04T02:41:11.074Z,100625.28
2023-05-04T02:42:11.068Z,100626.05
2023-05-04T02:43:11.071Z,100626.71
2023-05-04T02:44:11.071Z,100625.37
2023-05-04T02:45:11.074Z,100626.48
2023-05-04T02:46:11.126Z,100627.18
2023-05-04T02:47:11.067Z,100621.17
2023-05-04T02:48:11.078Z,100621.32
2023-05-04T02:49:11.068Z,100619.54
2023-05-04T02:50:11.073Z,100620.00
2023-05-04T02:51:11.080Z,100617.87
2023-05-04T02:52:11.074Z,100619.02
2023-05-04T02:53:11.092Z,100622.59
2023-05-04T02:54:11.079Z,100615.79
2023-05-04T02:55:11.071Z,100613.84
2023-05-04T02:56:11.069Z,100612.18
2023-05-04T02:57:11.089Z,100612.78
2023-05-04T02:58:11.073Z,100610.63
2023-05-04T02:59:11.072Z,100607.12
2023-05-04T03:00:11.091Z,100610.09
2023-05-04T03:01:11.095Z,100605.68
2023-05-04T03:02:11.086Z,100598.90
2023-05-04T03:03:11.074Z,100605.15
2023-05-04T03:04:11.100Z,100603.37
2023-05-04T03:05:11.074Z,100600.24
2023-05-04T03:06:11.076Z,100602.73
2023-05-04T03:07:11.084Z,100600.58
2023-05-04T03:08:11.094Z,100602.68
2023-05-04T03:09:11.109Z,100598.01
2023-05-04T03:10:11.083Z,100595.38
2023-05-04T03:11:11.094Z,100596.61
2023-05-04T03:12:11.071Z,100592.58
2023-05-04T03:13:11.105Z,100595.17
2023-05-04T03:14:11.085Z,100592.61
2023-05-04T03:15:11.073Z,100596.10
2023-05-04T03:16:11.106Z,100598.84
2023-05-04T03:17:11.075Z,100594.80
2023-05-04T03:18:11.127Z,100592.34
2023-05-04T03:19:11.080Z,100587.82
2023-05-04T03:20:12.072Z,100587.55
2023-05-04T03:21:11.082Z,100591.25
2023-05-04T03:22:11.094Z,100588.39
2023-05-04T03:23:11.076Z,100591.98
2023-05-04T03:24:11.077Z,100590.58
2023-05-04T03:25:11.077Z,100591.35
2023-05-04T03:26:11.076Z,100590.22
2023-05-04T03:27:11.072Z,100587.69
2023-05-04T03:28:11.083Z,100589.30
2023-05-04T03:29:11.078Z,100584.04
2023-05-04T03:30:11.073Z,100584.34
2023-05-04T03:31:11.074Z,100584.87
2023-05-04T03:32:11.134Z,100584.72
2023-05-04T03:33:11.093Z,100584.47
2023-05-04T03:34:11.075Z,100586.54
2023-05-04T03:35:11.076Z,100584.80
2023-05-04T03:36:11.075Z,100583.43
2023-05-04T03:37:11.078Z,100587.88
2023-05-04T03:38:13.079Z,100588.32
2023-05-04T03:39:11.075Z,100585.60
2023-05-04T03:40:11.072Z,100588.43
2023-05-04T03:41:11.088Z,100583.05
2023-05-04T03:42:11.077Z,100573.86
2023-05-04T03:43:11.075Z,100565.62
2023-05-04T03:44:11.080Z,100569.77
2023-05-04T03:45:11.078Z,100567.80
2023-05-04T03:46:11.129Z,100565.17
2023-05-04T03:47:11.106Z,100566.95
2023-05-04T03:48:11.163Z,100566.01
2023-05-04T03:49:11.076Z,100557.98
2023-05-04T03:50:11.087Z,100552.86
2023-05-04T03:51:11.078Z,100558.76
2023-05-04T03:52:11.082Z,100550.12
2023-05-04T03:53:11.086Z,100550.55
2023-05-04T03:54:11.076Z,100552.11
2023-05-04T03:55:11.079Z,100549.92
2023-05-04T03:56:11.084Z,100549.45
2023-05-04T03:57:11.086Z,100550.18
2023-05-04T03:58:11.081Z,100546.73
2023-05-04T03:59:11.092Z,100546.96
2023-05-04T04:00:11.086Z,100542.62
2023-05-04T04:01:11.067Z,100543.07
2023-05-04T04:02:11.090Z,100544.08
2023-05-04T04:03:11.225Z,100544.33
2023-05-04T04:04:11.082Z,100540.56
2023-05-04T04:05:11.070Z,100539.46
2023-05-04T04:06:12.064Z,100540.27
2023-05-04T04:07:11.063Z,100540.62
2023-05-04T04:08:11.064Z,100534.66
2023-05-04T04:09:11.061Z,100535.59
2023-05-04T04:10:11.059Z,100535.57
2023-05-04T04:11:11.078Z,100536.57
2023-05-04T04:12:11.063Z,100537.95
2023-05-04T04:13:11.132Z,100536.89
2023-05-04T04:14:11.066Z,100536.59
2023-05-04T04:15:11.070Z,100535.19
2023-05-04T04:16:11.076Z,100533.96
2023-05-04T04:17:11.064Z,100530.61
2023-05-04T04:18:11.064Z,100529.14
2023-05-04T04:19:11.067Z,100530.33
2023-05-04T04:20:11.077Z,100530.68
2023-05-04T04:21:11.065Z,100532.54
2023-05-04T04:22:11.061Z,100525.55
2023-05-04T04:23:11.063Z,100528.92
2023-05-04T04:24:11.088Z,100524.39
2023-05-04T04:25:11.065Z,100521.31
2023-05-04T04:26:11.072Z,100519.14
2023-05-04T04:27:11.071Z,100515.39
2023-05-04T04:28:11.064Z,100510.18
2023-05-04T04:29:11.068Z,100508.41
2023-05-04T04:30:11.066Z,100507.64
2023-05-04T04:31:11.134Z,100506.06
2023-05-04T04:32:11.077Z,100503.40
2023-05-04T04:33:11.089Z,100498.61
2023-05-04T04:34:11.065Z,100496.09
2023-05-04T04:35:11.081Z,100497.74
2023-05-04T04:36:11.085Z,100497.42
2023-05-04T04:37:11.064Z,100496.29
2023-05-04T04:38:11.065Z,100485.14
2023-05-04T04:39:11.097Z,100488.07
2023-05-04T04:40:11.065Z,100486.09
2023-05-04T04:41:11.065Z,100487.87
2023-05-04T04:42:11.067Z,100484.63
2023-05-04T04:43:11.063Z,100487.63
2023-05-04T04:44:11.068Z,100481.13
2023-05-04T04:45:11.071Z,100481.53
2023-05-04T04:46:11.088Z,100487.80
2023-05-04T04:47:11.068Z,100485.96
2023-05-04T04:48:11.223Z,100484.47
2023-05-04T04:49:11.070Z,100487.07
2023-05-04T04:50:11.059Z,100481.26
2023-05-04T04:51:13.069Z,100482.41
2023-05-04T04:52:12.198Z,100483.46
2023-05-04T04:53:11.082Z,100488.15
2023-05-04T04:54:11.066Z,100485.68
2023-05-04T04:55:11.080Z,100486.79
2023-05-04T04:56:11.082Z,100484.17
2023-05-04T04:57:11.069Z,100484.25
2023-05-04T04:58:11.076Z,100487.52
2023-05-04T04:59:11.081Z,100486.98
2023-05-04T05:00:13.070Z,100485.11
2023-05-04T05:01:11.140Z,100484.62
2023-05-04T05:02:11.068Z,100483.07
2023-05-04T05:03:11.134Z,100481.88
2023-05-04T05:04:11.097Z,100480.09
2023-05-04T05:05:11.136Z,100480.34
2023-05-04T05:06:11.075Z,100479.37
2023-05-04T05:07:12.082Z,100473.10
2023-05-04T05:08:11.068Z,100478.49
2023-05-04T05:09:11.066Z,100477.17
2023-05-04T05:10:11.088Z,100478.04
2023-05-04T05:11:11.077Z,100477.92
2023-05-04T05:12:11.064Z,100476.38
2023-05-04T05:13:11.127Z,100479.83
2023-05-04T05:14:11.078Z,100481.57
2023-05-04T05:15:11.069Z,100482.20
2023-05-04T05:16:11.091Z,100485.46
2023-05-04T05:17:11.072Z,100485.88
2023-05-04T05:18:11.100Z,100491.95
2023-05-04T05:19:11.076Z,100484.44
2023-05-04T05:20:14.128Z,100490.79
2023-05-04T05:21:11.066Z,100488.81
2023-05-04T05:22:11.075Z,100488.28
2023-05-04T05:23:11.080Z,100493.77
2023-05-04T05:24:11.070Z,100486.27
2023-05-04T05:25:11.094Z,100485.52
2023-05-04T05:26:11.106Z,100486.03
2023-05-04T05:27:11.077Z,100494.98
2023-05-04T05:28:11.074Z,100491.08
2023-05-04T05:29:11.078Z,100483.57
2023-05-04T05:30:11.071Z,100490.09
2023-05-04T05:31:11.142Z,100482.70
2023-05-04T05:32:11.079Z,100481.27
2023-05-04T05:33:11.138Z,100477.17
2023-05-04T05:34:11.071Z,100478.88
2023-05-04T05:35:11.080Z,100475.77
2023-05-04T05:36:11.095Z,100474.49
2023-05-04T05:37:11.077Z,100468.57
2023-05-04T05:38:11.079Z,100475.33
2023-05-04T05:39:11.074Z,100466.94
2023-05-04T05:40:11.081Z,100465.01
2023-05-04T05:41:11.077Z,100462.59
2023-05-04T05:42:11.085Z,100460.64
2023-05-04T05:43:11.077Z,100455.92
2023-05-04T05:44:12.957Z,100459.56
2023-05-04T05:45:11.074Z,100457.35
2023-05-04T05:46:11.149Z,100457.71
2023-05-04T05:47:11.069Z,100460.06
2023-05-04T05:48:11.132Z,100449.66
2023-05-04T05:49:11.073Z,100454.01
2023-05-04T05:50:11.079Z,100447.06
2023-05-04T05:51:11.075Z,100446.33
2023-05-04T05:52:11.080Z,100440.82
2023-05-04T05:53:11.077Z,100445.49
2023-05-04T05:54:11.079Z,100445.42
2023-05-04T05:55:11.075Z,100450.99
2023-05-04T05:56:11.078Z,100449.09
2023-05-04T05:57:11.080Z,100444.93
2023-05-04T05:58:11.074Z,100444.48
2023-05-04T05:59:11.072Z,100444.28
2023-05-04T06:00:11.081Z,100444.75
2023-05-04T06:01:11.069Z,100443.87
2023-05-04T06:02:11.117Z,100441.62
2023-05-04T06:03:11.206Z,100441.27
2023-05-04T06:04:11.223Z,100442.88
2023-05-04T06:05:11.097Z,100439.03
2023-05-04T06:06:11.088Z,100445.76
2023-05-04T06:07:11.081Z,100449.60
2023-05-04T06:08:11.069Z,100444.11
2023-05-04T06:09:11.089Z,100448.41
2023-05-04T06:10:11.079Z,100441.98
2023-05-04T06:11:11.075Z,100437.81
2023-05-04T06:12:11.076Z,100438.74
2023-05-04T06:13:11.156Z,100434.54
2023-05-04T06:14:11.074Z,100431.36
2023-05-04T06:15:11.070Z,100431.27
2023-05-04T06:16:11.130Z,100424.59
2023-05-04T06:17:11.079Z,100421.52
2023-05-04T06:18:11.074Z,100418.53
2023-05-04T06:19:11.082Z,100422.88
2023-05-04T06:20:11.075Z,100417.34
2023-05-04T06:21:11.074Z,100421.09
2023-05-04T06:22:11.077Z,100422.11
2023-05-04T06:23:11.081Z,100423.89
2023-05-04T06:24:11.083Z,100421.02
2023-05-04T06:25:11.082Z,100426.43
2023-05-04T06:26:11.074Z,100425.22
2023-05-04T06:27:11.086Z,100420.38
2023-05-04T06:28:11.080Z,100420.51
2023-05-04T06:29:11.079Z,100415.27
2023-05-04T06:30:11.081Z,100406.35
2023-05-04T06:31:11.113Z,100401.38
2023-05-04T06:32:11.311Z,100400.81
2023-05-04T06:33:11.145Z,100404.36
2023-05-04T06:34:11.076Z,100400.50
2023-05-04T06:35:11.075Z,100402.20
2023-05-04T06:36:11.075Z,100402.33
2023-05-04T06:37:11.958Z,100400.87
2023-05-04T06:38:11.075Z,100397.11
2023-05-04T06:39:11.074Z,100392.50
2023-05-04T06:40:11.418Z,100396.36
2023-05-04T06:41:11.072Z,100387.48
2023-05-04T06:42:11.074Z,100386.00
2023-05-04T06:43:11.076Z,100384.48
2023-05-04T06:44:11.081Z,100377.52
2023-05-04T06:45:11.078Z,100376.75
2023-05-04T06:46:11.099Z,100373.94
2023-05-04T06:47:11.085Z,100368.88
2023-05-04T06:48:11.124Z,100370.87
2023-05-04T06:49:11.084Z,100367.16
2023-05-04T06:50:11.094Z,100365.78
2023-05-04T06:51:11.082Z,100358.12
2023-05-04T06:52:11.086Z,100352.03
2023-05-04T06:53:11.076Z,100355.71
2023-05-04T06:54:11.083Z,100358.09
2023-05-04T06:55:11.085Z,100359.60
2023-05-04T06:56:11.097Z,100359.67
2023-05-04T06:57:11.117Z,100360.19
2023-05-04T06:58:11.074Z,100359.46
2023-05-04T06:59:11.088Z,100360.46
2023-05-04T07:00:11.087Z,100353.45
2023-05-04T07:01:12.118Z,100347.98
2023-05-04T07:02:11.063Z,100351.62
2023-05-04T07:03:11.209Z,100343.62
2023-05-04T07:04:11.126Z,100341.94
2023-05-04T07:05:11.063Z,100328.77
2023-05-04T07:06:11.069Z,100314.98
2023-05-04T07:07:11.068Z,100308.09
2023-05-04T07:08:11.076Z,100312.93
2023-05-04T07:09:11.074Z,100309.42
2023-05-04T07:10:11.062Z,100319.07
2023-05-04T07:11:11.079Z,100311.11
2023-05-04T07:12:11.066Z,100318.26
2023-05-04T07:13:11.195Z,100307.55
2023-05-04T07:14:11.068Z,100305.94
2023-05-04T07:15:11.071Z,100302.94
2023-05-04T07:16:11.077Z,100307.98
2023-05-04T07:17:11.057Z,100304.79
2023-05-04T07:18:11.102Z,100302.44
2023-05-04T07:19:11.106Z,100304.97
2023-05-04T07:20:11.089Z,100309.36
2023-05-04T07:22:11.065Z,100314.67
2023-05-04T07:23:11.070Z,100319.64
2023-05-04T07:24:11.070Z,100322.62
2023-05-04T07:25:11.068Z,100328.84
2023-05-04T07:26:11.060Z,100325.21
2023-05-04T07:27:11.068Z,100321.66
2023-05-04T07:28:11.062Z,100320.75
2023-05-04T07:29:11.059Z,100310.23
2023-05-04T07:30:11.061Z,100304.47
2023-05-04T07:31:11.068Z,100304.89
2023-05-04T07:32:11.141Z,100309.50
2023-05-04T07:33:11.078Z,100311.59
2023-05-04T07:34:11.087Z,100310.63
2023-05-04T07:35:11.065Z,100302.97
2023-05-04T07:36:11.061Z,100306.55
2023-05-04T07:37:11.072Z,100306.06
2023-05-04T07:38:11.062Z,100298.60
2023-05-04T07:39:11.065Z,100299.58
2023-05-04T07:40:11.074Z,100298.04
2023-05-04T07:41:11.060Z,100297.56
2023-05-04T07:42:11.069Z,100295.80
2023-05-04T07:43:11.069Z,100296.04
2023-05-04T07:44:12.059Z,100293.19
2023-05-04T07:45:11.066Z,100293.35
2023-05-04T07:46:11.097Z,100287.32
2023-05-04T07:47:11.063Z,100283.79
2023-05-04T07:48:11.130Z,100282.36
2023-05-04T07:49:11.065Z,100278.26
2023-05-04T07:50:11.064Z,100283.41
2023-05-04T07:51:13.061Z,100282.94
2023-05-04T07:52:11.074Z,100276.55
2023-05-04T07:53:11.066Z,100282.34
2023-05-04T07:54:11.063Z,100275.26
2023-05-04T07:55:11.070Z,100280.61
2023-05-04T07:56:11.065Z,100281.12
2023-05-04T07:57:11.063Z,100281.73
2023-05-04T07:58:11.064Z,100284.85
2023-05-04T07:59:11.067Z,100285.00
2023-05-04T08:00:11.062Z,100285.16
2023-05-04T08:01:11.082Z,100280.94
2023-05-04T08:02:11.094Z,100279.70
2023-05-04T08:03:11.171Z,100271.32
2023-05-04T08:04:11.068Z,100273.43
2023-05-04T08:05:11.075Z,100267.77
2023-05-04T08:06:11.067Z,100267.20
2023-05-04T08:07:11.070Z,100263.94
2023-05-04T08:08:11.075Z,100267.48
2023-05-04T08:09:11.073Z,100266.62
2023-05-04T08:10:11.068Z,100271.41
2023-05-04T08:11:19.065Z,100261.99
2023-05-04T08:12:13.081Z,100259.39
2023-05-04T08:13:11.148Z,100257.32
2023-05-04T08:14:11.070Z,100253.36
2023-05-04T08:15:11.068Z,100251.02
2023-05-04T08:16:11.080Z,100251.84
2023-05-04T08:17:11.070Z,100248.00
2023-05-04T08:18:11.069Z,100244.35
2023-05-04T08:19:11.072Z,100240.67
2023-05-04T08:20:11.072Z,100245.22
2023-05-04T08:21:11.079Z,100242.06
2023-05-04T08:22:11.064Z,100247.53
2023-05-04T08:23:11.079Z,100242.54
2023-05-04T08:24:11.080Z,100249.97
2023-05-04T08:25:11.072Z,100244.40
2023-05-04T08:26:11.070Z,100254.28
2023-05-04T08:27:12.072Z,100257.61
2023-05-04T08:28:11.071Z,100260.07
2023-05-04T08:29:11.097Z,100261.78
2023-05-04T08:30:11.070Z,100261.66
2023-05-04T08:31:11.142Z,100264.73
2023-05-04T08:32:11.074Z,100263.45
2023-05-04T08:33:11.104Z,100264.77
2023-05-04T08:34:11.073Z,100264.84
2023-05-04T08:35:11.084Z,100274.97
2023-05-04T08:36:11.077Z,100273.28
2023-05-04T08:37:11.077Z,100268.23
2023-05-04T08:38:11.076Z,100275.78
2023-05-04T08:39:11.089Z,100272.87
2023-05-04T08:40:11.079Z,100273.80
2023-05-04T08:41:11.105Z,100275.28
2023-05-04T08:42:11.086Z,100274.41
2023-05-04T08:43:11.075Z,100279.42
2023-05-04T08:44:11.076Z,100281.26
2023-05-04T08:45:11.085Z,100270.57
2023-05-04T08:46:11.097Z,100277.52
2023-05-04T08:47:11.080Z,100278.59
2023-05-04T08:48:11.096Z,100284.04
2023-05-04T08:49:11.078Z,100279.55
2023-05-04T08:50:11.084Z,100274.62
2023-05-04T08:51:11.084Z,100283.50
2023-05-04T08:52:11.075Z,100265.14
2023-05-04T08:53:13.101Z,100277.09
2023-05-04T08:54:11.128Z,100269.19
2023-05-04T08:55:13.091Z,100263.16
2023-05-04T08:56:12.073Z,100264.30
2023-05-04T08:57:11.081Z,100267.75
2023-05-04T08:58:12.091Z,100263.60
2023-05-04T08:59:17.075Z,100252.14
2023-05-04T09:00:11.080Z,100250.46
2023-05-04T09:01:11.163Z,100249.34
2023-05-04T09:02:13.155Z,100246.26
2023-05-04T09:03:11.193Z,100240.29
2023-05-04T09:04:11.094Z,100234.21
2023-05-04T09:05:12.087Z,100238.84
2023-05-04T09:06:11.092Z,100242.87
2023-05-04T09:07:11.084Z,100241.96
2023-05-04T09:08:11.080Z,100238.81
2023-05-04T09:09:11.083Z,100243.11
2023-05-04T09:10:11.085Z,100229.33
2023-05-04T09:11:11.087Z,100225.87
2023-05-04T09:12:11.091Z,100227.03
2023-05-04T09:13:11.179Z,100221.21
2023-05-04T09:14:11.081Z,100218.80
2023-05-04T09:15:15.076Z,100214.05
2023-05-04T09:16:12.758Z,100218.94
2023-05-04T09:17:15.082Z,100227.11
2023-05-04T09:18:11.088Z,100225.96
2023-05-04T09:19:17.093Z,100221.84
2023-05-04T09:20:11.088Z,100228.17
2023-05-04T09:21:11.082Z,100222.38
2023-05-04T09:22:15.074Z,100222.57
2023-05-04T09:23:11.116Z,100220.75
2023-05-04T09:24:11.081Z,100213.72
2023-05-04T09:25:14.080Z,100215.64
2023-05-04T09:26:11.080Z,100212.65
2023-05-04T09:27:13.092Z,100210.59
2023-05-04T09:28:11.079Z,100210.94
2023-05-04T09:29:13.098Z,100204.85
2023-05-04T09:30:12.083Z,100206.61
2023-05-04T09:31:11.122Z,100199.50
2023-05-04T09:32:13.174Z,100207.60
2023-05-04T09:33:11.082Z,100205.05
2023-05-04T09:34:11.102Z,100202.77
2023-05-04T09:35:16.167Z,100205.94
2023-05-04T09:36:21.341Z,100212.46
2023-05-04T09:37:11.084Z,100206.66
2023-05-04T09:38:11.077Z,100209.08
2023-05-04T09:39:15.166Z,100206.37
2023-05-04T09:40:11.100Z,100198.29
2023-05-04T09:41:11.124Z,100193.45
2023-05-04T09:42:17.082Z,100206.38
2023-05-04T09:43:11.087Z,100195.53
2023-05-04T09:44:19.090Z,100197.05
2023-05-04T09:45:11.085Z,100193.62
2023-05-04T09:46:17.114Z,100199.96
2023-05-04T09:47:11.095Z,100202.40
2023-05-04T09:48:19.172Z,100201.49
2023-05-04T09:49:11.085Z,100193.40
2023-05-04T09:50:19.066Z,100191.43
2023-05-04T09:51:11.102Z,100186.99
2023-05-04T09:52:11.106Z,100204.55
2023-05-04T09:53:11.089Z,100192.29
2023-05-04T09:54:11.090Z,100183.94
2023-05-04T09:55:12.088Z,100183.26
2023-05-04T09:56:17.089Z,100176.43
2023-05-04T09:57:15.110Z,100175.24
2023-05-04T09:58:11.086Z,100170.67
2023-05-04T09:59:11.082Z,100171.38
2023-05-04T10:00:13.104Z,100161.14
2023-05-04T10:01:11.176Z,100163.36
2023-05-04T10:02:22.131Z,100158.24
2023-05-04T10:03:13.055Z,100148.12
2023-05-04T10:04:11.062Z,100162.57
2023-05-04T10:05:13.107Z,100154.20
2023-05-04T10:06:11.068Z,100167.27
2023-05-04T10:07:11.065Z,100154.39
2023-05-04T10:08:11.062Z,100153.45
2023-05-04T10:09:11.063Z,100156.07
2023-05-04T10:10:11.081Z,100144.05
2023-05-04T10:11:11.068Z,100145.09
2023-05-04T10:12:11.062Z,100136.56
2023-05-04T10:13:11.140Z,100132.81
2023-05-04T10:14:11.062Z,100133.55
2023-05-04T10:15:11.077Z,100129.01
2023-05-04T10:16:21.143Z,100121.31
2023-05-04T10:17:19.060Z,100124.25
2023-05-04T10:18:19.069Z,100122.93
2023-05-04T10:19:19.072Z,100110.76
2023-05-04T10:20:19.071Z,100117.67
2023-05-04T10:21:19.092Z,100108.80
2023-05-04T10:22:19.061Z,100119.76
2023-05-04T10:23:19.072Z,100117.61
2023-05-04T10:24:19.072Z,100113.62
2023-05-04T10:25:21.070Z,100119.51
2023-05-04T10:26:19.065Z,100122.59
2023-05-04T10:27:18.060Z,100120.58
2023-05-04T10:28:21.069Z,100111.45
2023-05-04T10:29:20.584Z,100115.28
2023-05-04T10:30:11.066Z,100102.54
2023-05-04T10:31:11.114Z,100109.63
2023-05-04T10:32:17.068Z,100106.38
2023-05-04T10:33:11.092Z,100095.54
2023-05-04T10:34:11.066Z,100099.18
2023-05-04T10:35:11.065Z,100098.02
2023-05-04T10:36:11.080Z,100094.06
2023-05-04T10:37:20.098Z,100097.86
2023-05-04T10:38:11.067Z,100092.27
2023-05-04T10:39:20.089Z,100088.87
2023-05-04T10:40:11.076Z,100091.61
2023-05-04T10:41:17.069Z,100092.55
2023-05-04T10:42:11.068Z,100097.01
2023-05-04T10:43:15.078Z,100090.82
2023-05-04T10:44:11.068Z,100080.96
2023-05-04T10:45:11.081Z,100091.75
2023-05-04T10:46:19.082Z,100087.39
2023-05-04T10:47:11.071Z,100093.36
2023-05-04T10:48:11.103Z,100087.11
2023-05-04T10:49:16.073Z,100097.72
2023-05-04T10:50:11.076Z,100087.30
2023-05-04T10:51:17.072Z,100087.49
2023-05-04T10:52:14.070Z,100090.41
2023-05-04T10:53:11.109Z,100090.52
2023-05-04T10:54:17.083Z,100087.88
2023-05-04T10:55:11.069Z,100079.70
2023-05-04T10:56:15.073Z,100079.60
2023-05-04T10:57:12.076Z,100085.89
2023-05-04T10:58:11.068Z,100078.09
2023-05-04T10:59:11.069Z,100082.84
2023-05-04T11:00:11.072Z,100072.72
2023-05-04T11:01:13.084Z,100069.87
2023-05-04T11:02:11.079Z,100064.70
2023-05-04T11:03:11.218Z,100065.95
2023-05-04T11:04:19.074Z,100057.42
2023-05-04T11:05:11.072Z,100056.22
2023-05-04T11:06:23.161Z,100064.04
2023-05-04T11:07:11.071Z,100059.24
2023-05-04T11:08:15.070Z,100056.33
2023-05-04T11:09:14.070Z,100052.95
2023-05-04T11:10:15.132Z,100049.32
2023-05-04T11:11:12.074Z,100054.70
2023-05-04T11:12:11.074Z,100055.82
2023-05-04T11:13:12.158Z,100051.09
2023-05-04T11:14:11.082Z,100054.69
2023-05-04T11:15:11.073Z,100056.08
2023-05-04T11:16:11.113Z,100052.00
2023-05-04T11:17:26.916Z,100038.34
2023-05-04T11:18:13.188Z,100041.79
2023-05-04T11:19:11.083Z,100046.35
2023-05-04T11:20:11.082Z,100044.23
2023-05-04T11:21:11.073Z,100047.74
2023-05-04T11:22:11.072Z,100049.30
2023-05-04T11:23:17.097Z,100048.80
2023-05-04T11:24:11.073Z,100049.75
2023-05-04T11:25:11.077Z,100050.01